createdAt,value
2017-09-07T00:02:24.641Z,81.08
2017-09-07T00:04:53.730Z,81.18
2017-09-07T00:07:22.781Z,81.15
2017-09-07T00:09:52.113Z,81.28
2017-09-07T00:12:21.171Z,81.06
2017-09-07T00:15:19.395Z,81.26
2017-09-07T00:17:48.748Z,81.38
2017-09-07T00:20:17.799Z,81.61
2017-09-07T00:22:46.878Z,81.47
2017-09-07T00:25:16.015Z,82.03
2017-09-07T00:27:45.186Z,81.83
2017-09-07T00:30:14.280Z,81.89
2017-09-07T00:32:43.350Z,82.35
2017-09-07T00:35:12.471Z,82.14
2017-09-07T00:37:43.448Z,82.37
2017-09-07T00:40:13.276Z,82.29
2017-09-07T00:42:42.350Z,82.32
2017-09-07T00:45:12.188Z,82.40
2017-09-07T00:47:42.011Z,83.03
2017-09-07T00:50:11.074Z,82.57
2017-09-07T00:52:40.925Z,82.36
2017-09-07T00:55:09.989Z,82.65
2017-09-07T00:57:39.053Z,82.48
2017-09-07T01:00:08.185Z,82.21
2017-09-07T01:02:38.037Z,82.27
2017-09-07T01:05:07.099Z,82.32
2017-09-07T01:07:36.166Z,82.33
2017-09-07T01:10:06.016Z,82.04
2017-09-07T01:12:35.088Z,82.22
2017-09-07T01:15:04.336Z,81.86
2017-09-07T01:17:33.387Z,81.63
2017-09-07T01:20:02.461Z,81.71
2017-09-07T01:22:31.564Z,81.86
2017-09-07T01:25:01.407Z,81.34
2017-09-07T01:27:30.443Z,81.21
2017-09-07T01:29:59.507Z,81.05
2017-09-07T01:32:28.568Z,80.90
2017-09-07T01:34:58.375Z,80.82
2017-09-07T01:37:28.404Z,80.67
2017-09-07T01:39:58.226Z,80.70
2017-09-07T01:42:27.315Z,80.25
2017-09-07T01:44:56.360Z,80.21
2017-09-07T01:47:25.435Z,80.19
2017-09-07T01:49:54.495Z,80.19
2017-09-07T01:52:23.594Z,79.99
2017-09-07T01:54:52.680Z,80.12
2017-09-07T01:57:22.689Z,79.84
2017-09-07T01:59:52.519Z,80.36
2017-09-07T02:02:21.606Z,79.80
2017-09-07T02:04:51.424Z,79.79
2017-09-07T02:07:21.267Z,79.72
2017-09-07T02:09:50.323Z,79.73
2017-09-07T02:12:20.185Z,79.47
2017-09-07T02:14:49.220Z,80.09
2017-09-07T02:17:19.052Z,79.38
2017-09-07T02:19:48.868Z,79.38
2017-09-07T02:22:18.235Z,79.12
2017-09-07T02:24:47.311Z,79.25
2017-09-07T02:27:16.375Z,79.08
2017-09-07T02:29:45.458Z,79.18
2017-09-07T02:32:14.492Z,78.75
2017-09-07T02:34:43.652Z,79.07
2017-09-07T02:37:12.823Z,79.12
2017-09-07T02:39:42.689Z,79.09
2017-09-07T02:42:11.769Z,79.63
2017-09-07T02:44:40.863Z,79.29
2017-09-07T02:47:10.686Z,79.19
2017-09-07T02:49:39.739Z,79.15
2017-09-07T02:52:08.843Z,78.84
2017-09-07T02:54:38.669Z,78.72
2017-09-07T02:57:07.737Z,78.43
2017-09-07T02:59:37.038Z,78.90
2017-09-07T03:02:06.850Z,78.44
2017-09-07T03:04:36.691Z,78.37
2017-09-07T03:07:05.748Z,78.43
2017-09-07T03:09:34.813Z,78.34
2017-09-07T03:12:03.897Z,78.39
2017-09-07T03:14:33.078Z,78.58
2017-09-07T03:17:02.905Z,78.31
2017-09-07T03:19:31.959Z,78.16
2017-09-07T03:22:01.778Z,78.32
2017-09-07T03:24:31.601Z,78.47
2017-09-07T03:27:00.643Z,79.22
2017-09-07T03:29:29.699Z,79.10
2017-09-07T03:31:59.524Z,79.31
2017-09-07T03:34:28.576Z,79.73
2017-09-07T03:36:57.657Z,79.62
2017-09-07T03:39:26.729Z,79.45
2017-09-07T03:41:55.783Z,79.63
2017-09-07T03:44:24.861Z,79.60
2017-09-07T03:46:54.188Z,79.64
2017-09-07T03:49:24.049Z,79.66
2017-09-07T03:51:53.109Z,79.89
2017-09-07T03:54:22.162Z,79.61
2017-09-07T03:56:51.999Z,79.62
2017-09-07T03:59:21.838Z,79.11
2017-09-07T04:01:50.878Z,79.54
2017-09-07T04:04:19.991Z,79.64
2017-09-07T04:06:49.060Z,79.74
2017-09-07T04:09:18.128Z,80.41
2017-09-07T04:11:47.180Z,80.47
2017-09-07T04:14:17.008Z,80.72
2017-09-07T04:16:46.082Z,81.23
2017-09-07T04:19:15.908Z,81.40
2017-09-07T04:21:45.006Z,81.88
2017-09-07T04:24:14.069Z,81.52
2017-09-07T04:26:43.115Z,81.82
2017-09-07T04:29:12.199Z,81.60
2017-09-07T04:31:41.259Z,81.57
2017-09-07T04:34:10.645Z,81.31
2017-09-07T04:36:39.734Z,81.38
2017-09-07T04:39:08.838Z,81.29
2017-09-07T04:41:37.901Z,81.43
2017-09-07T04:44:06.960Z,81.41
2017-09-07T04:46:36.800Z,81.40
2017-09-07T04:49:05.839Z,81.32
2017-09-07T04:51:34.922Z,81.33
2017-09-07T04:54:04.055Z,81.27
2017-09-07T04:56:33.865Z,81.26
2017-09-07T04:59:02.956Z,81.39
2017-09-07T05:01:31.987Z,81.36
2017-09-07T05:04:01.044Z,81.74
2017-09-07T05:06:30.432Z,82.44
2017-09-07T05:08:59.483Z,82.63
2017-09-07T05:11:28.525Z,82.89
2017-09-07T05:13:57.612Z,83.88
2017-09-07T05:16:26.646Z,84.40
2017-09-07T05:18:55.716Z,83.85
2017-09-07T05:21:24.811Z,83.72
2017-09-07T05:23:53.849Z,83.89
2017-09-07T05:26:22.947Z,84.30
2017-09-07T05:28:51.980Z,84.07
2017-09-07T05:31:21.061Z,84.07
2017-09-07T05:33:50.157Z,84.01
2017-09-07T05:36:19.253Z,84.30
2017-09-07T05:38:49.092Z,84.59
2017-09-07T05:41:18.502Z,84.21
2017-09-07T05:43:47.551Z,84.29
2017-09-07T05:46:16.648Z,84.41
2017-09-07T05:48:45.720Z,84.31
2017-09-07T05:51:15.737Z,84.27
2017-09-07T05:53:44.813Z,84.68
2017-09-07T05:56:14.675Z,84.34
2017-09-07T05:58:44.489Z,84.09
2017-09-07T06:01:13.572Z,83.50
2017-09-07T06:03:42.636Z,84.69
2017-09-07T06:06:11.728Z,83.73
2017-09-07T06:08:41.072Z,84.08
2017-09-07T06:11:10.184Z,83.58
2017-09-07T06:13:39.252Z,83.57
2017-09-07T06:16:08.372Z,83.78
2017-09-07T06:18:37.431Z,83.48
2017-09-07T06:21:06.507Z,83.29
2017-09-07T06:23:36.352Z,83.23
2017-09-07T06:26:05.418Z,82.70
2017-09-07T06:28:35.248Z,82.87
2017-09-07T06:31:04.310Z,82.43
2017-09-07T06:33:34.147Z,82.34
2017-09-07T06:36:03.235Z,82.46
2017-09-07T06:38:33.079Z,81.93
2017-09-07T06:41:02.145Z,82.14
2017-09-07T06:43:31.204Z,81.72
2017-09-07T06:46:00.280Z,81.57
2017-09-07T06:48:29.411Z,81.79
2017-09-07T06:50:59.271Z,82.25
2017-09-07T06:53:28.336Z,81.43
2017-09-07T06:55:57.402Z,80.95
2017-09-07T06:58:26.464Z,81.21
2017-09-07T07:00:55.572Z,80.77
2017-09-07T07:03:24.667Z,80.22
2017-09-07T07:05:53.714Z,80.21
2017-09-07T07:08:22.860Z,79.91
2017-09-07T07:10:51.940Z,80.37
2017-09-07T07:13:20.983Z,80.20
2017-09-07T07:15:50.084Z,80.16
2017-09-07T07:18:19.950Z,80.37
2017-09-07T07:20:48.998Z,80.65
2017-09-07T07:23:18.837Z,80.86
2017-09-07T07:25:47.892Z,80.27
2017-09-07T07:28:17.756Z,80.98
2017-09-07T07:30:46.829Z,81.43
2017-09-07T07:33:16.646Z,81.21
2017-09-07T07:35:45.967Z,81.55
2017-09-07T07:38:15.007Z,82.04
2017-09-07T07:40:44.080Z,81.59
2017-09-07T07:43:13.155Z,82.10
2017-09-07T07:45:42.206Z,81.54
2017-09-07T07:48:11.295Z,81.43
2017-09-07T07:50:41.205Z,81.53
2017-09-07T07:53:11.092Z,80.93
2017-09-07T07:55:40.204Z,81.61
2017-09-07T07:58:09.276Z,80.26
2017-09-07T08:00:38.348Z,79.07
2017-09-07T08:03:07.420Z,78.91
2017-09-07T08:05:37.236Z,78.13
2017-09-07T08:08:06.552Z,79.42
2017-09-07T08:10:35.637Z,77.14
2017-09-07T08:13:04.711Z,76.76
2017-09-07T08:15:33.779Z,75.71
2017-09-07T08:18:02.837Z,75.37
2017-09-07T08:20:31.889Z,76.87
2017-09-07T08:23:00.990Z,74.84
2017-09-07T08:25:30.828Z,72.46
2017-09-07T08:27:59.908Z,74.39
2017-09-07T08:30:29.013Z,73.69
2017-09-07T08:32:58.075Z,72.80
2017-09-07T08:35:27.188Z,73.33
2017-09-07T08:37:56.347Z,72.61
2017-09-07T08:40:25.416Z,72.23
2017-09-07T08:42:55.241Z,71.82
2017-09-07T08:45:24.337Z,72.99
2017-09-07T08:47:53.396Z,70.08
2017-09-07T08:50:23.249Z,70.84
2017-09-07T08:52:52.716Z,70.11
2017-09-07T08:55:21.759Z,69.50
2017-09-07T08:57:50.815Z,68.29
2017-09-07T09:00:19.877Z,68.44
2017-09-07T09:02:49.747Z,68.83
2017-09-07T09:05:18.827Z,67.77
2017-09-07T09:07:48.757Z,67.84
2017-09-07T09:10:17.828Z,68.10
2017-09-07T09:12:46.929Z,67.26
2017-09-07T09:15:16.037Z,67.26
2017-09-07T09:17:45.837Z,67.52
2017-09-07T09:20:14.921Z,67.44
2017-09-07T09:22:44.014Z,67.62
2017-09-07T09:25:13.887Z,67.06
2017-09-07T09:27:43.036Z,65.84
2017-09-07T09:30:12.226Z,66.13
2017-09-07T09:32:42.069Z,66.78
2017-09-07T09:35:11.131Z,65.69
2017-09-07T09:37:40.994Z,65.83
2017-09-07T09:40:10.419Z,64.37
2017-09-07T09:42:39.514Z,63.91
2017-09-07T09:45:08.546Z,62.45
2017-09-07T09:47:37.670Z,64.73
2017-09-07T09:50:06.748Z,65.89
2017-09-07T09:52:35.803Z,64.59
2017-09-07T09:55:04.867Z,63.15
2017-09-07T09:57:33.976Z,61.09
2017-09-07T10:00:03.046Z,61.23
2017-09-07T10:02:32.100Z,61.10
2017-09-07T10:05:01.939Z,61.23
2017-09-07T10:07:31.021Z,64.05
2017-09-07T10:10:00.108Z,61.77
2017-09-07T10:12:29.174Z,62.27
2017-09-07T10:14:58.304Z,62.63
2017-09-07T10:17:27.423Z,63.99
2017-09-07T10:19:57.616Z,63.64
2017-09-07T10:22:27.569Z,64.54
2017-09-07T10:24:56.638Z,63.12
2017-09-07T10:27:25.716Z,63.75
2017-09-07T10:29:55.574Z,62.77
2017-09-07T10:32:24.661Z,62.28
2017-09-07T10:34:53.703Z,63.09
2017-09-07T10:37:23.549Z,63.13
2017-09-07T10:39:53.406Z,63.69
2017-09-07T10:42:22.468Z,64.35
2017-09-07T10:44:51.558Z,64.61
2017-09-07T10:47:20.647Z,64.18
2017-09-07T10:49:50.468Z,65.52
2017-09-07T10:52:19.546Z,63.21
2017-09-07T10:54:49.394Z,63.82
2017-09-07T10:57:18.511Z,64.14
2017-09-07T10:59:47.572Z,63.13
2017-09-07T11:02:16.720Z,62.43
2017-09-07T11:04:45.828Z,61.56
2017-09-07T11:07:14.884Z,61.77
2017-09-07T11:09:43.989Z,62.24
2017-09-07T11:12:13.424Z,61.93
2017-09-07T11:14:43.340Z,61.35
2017-09-07T11:17:13.192Z,60.45
2017-09-07T11:19:42.256Z,61.74
2017-09-07T11:22:12.119Z,61.97
2017-09-07T11:24:41.175Z,60.93
2017-09-07T11:27:10.246Z,60.13
2017-09-07T11:29:40.078Z,62.09
2017-09-07T11:32:10.079Z,60.60
2017-09-07T11:34:39.143Z,60.80
2017-09-07T11:37:08.212Z,60.03
2017-09-07T11:39:37.305Z,60.28
2017-09-07T11:42:06.383Z,59.57
2017-09-07T11:44:36.248Z,58.26
2017-09-07T11:47:05.300Z,57.89
2017-09-07T11:49:34.600Z,59.73
2017-09-07T11:52:03.976Z,58.63
2017-09-07T11:54:33.043Z,58.24
2017-09-07T11:57:02.431Z,58.18
2017-09-07T11:59:31.503Z,57.24
2017-09-07T12:02:00.597Z,59.28
2017-09-07T12:04:29.673Z,57.50
2017-09-07T12:06:58.749Z,55.40
2017-09-07T12:09:27.813Z,57.12
2017-09-07T12:11:56.917Z,57.43
2017-09-07T12:14:25.981Z,57.00
2017-09-07T12:16:55.107Z,56.65
2017-09-07T12:19:24.167Z,59.01
2017-09-07T12:21:53.219Z,60.24
2017-09-07T12:24:23.084Z,58.92
2017-09-07T12:26:52.367Z,58.27
2017-09-07T12:29:21.754Z,58.93
2017-09-07T12:31:50.813Z,59.08
2017-09-07T12:34:19.910Z,59.14
2017-09-07T12:36:48.976Z,59.78
2017-09-07T12:39:18.068Z,59.03
2017-09-07T12:41:47.128Z,58.41
2017-09-07T12:44:16.964Z,59.61
2017-09-07T12:46:46.009Z,59.66
2017-09-07T12:49:15.104Z,60.85
2017-09-07T12:51:44.197Z,59.61
2017-09-07T12:54:14.024Z,59.60
2017-09-07T12:56:43.091Z,58.89
2017-09-07T12:59:12.157Z,60.42
2017-09-07T13:01:41.225Z,60.44
2017-09-07T13:04:11.067Z,58.07
2017-09-07T13:06:40.140Z,55.99
2017-09-07T13:09:09.958Z,57.06
2017-09-07T13:11:39.297Z,57.80
2017-09-07T13:14:08.404Z,59.53
2017-09-07T13:16:37.445Z,61.03
2017-09-07T13:19:06.539Z,59.57
2017-09-07T13:21:36.412Z,57.47
2017-09-07T13:24:05.445Z,58.64
2017-09-07T13:26:34.555Z,59.18
2017-09-07T13:29:04.480Z,58.39
2017-09-07T13:31:34.276Z,58.35
2017-09-07T13:34:03.361Z,58.13
2017-09-07T13:36:33.185Z,59.59
2017-09-07T13:39:03.045Z,58.78
2017-09-07T13:41:32.101Z,59.50
2017-09-07T13:44:01.176Z,59.54
2017-09-07T13:46:31.237Z,59.76
2017-09-07T13:49:00.956Z,58.68
2017-09-07T13:51:30.028Z,60.10
2017-09-07T13:53:59.120Z,61.03
2017-09-07T13:56:28.296Z,60.27
2017-09-07T13:58:58.185Z,60.01
2017-09-07T14:01:27.275Z,59.58
2017-09-07T14:03:56.339Z,60.77
2017-09-07T14:06:25.432Z,60.71
2017-09-07T14:08:54.524Z,60.18
2017-09-07T14:11:23.857Z,59.77
2017-09-07T14:13:52.930Z,59.08
2017-09-07T14:16:21.997Z,57.87
2017-09-07T14:18:51.049Z,58.83
2017-09-07T14:21:20.123Z,59.50
2017-09-07T14:23:49.223Z,56.61
2017-09-07T14:26:18.276Z,58.11
2017-09-07T14:28:47.359Z,56.46
2017-09-07T14:31:16.437Z,56.50
2017-09-07T14:33:45.516Z,57.07
2017-09-07T14:36:14.612Z,57.05
2017-09-07T14:38:43.684Z,56.95
2017-09-07T14:41:12.929Z,59.05
2017-09-07T14:43:42.785Z,57.77
2017-09-07T14:46:11.892Z,57.76
2017-09-07T14:48:41.022Z,56.53
2017-09-07T14:51:10.346Z,57.47
2017-09-07T14:53:40.192Z,57.07
2017-09-07T14:56:09.276Z,57.17
2017-09-07T14:58:38.662Z,57.56
2017-09-07T15:01:07.768Z,58.02
2017-09-07T15:03:36.825Z,58.75
2017-09-07T15:06:05.984Z,59.33
2017-09-07T15:08:35.043Z,59.27
2017-09-07T15:11:04.913Z,59.33
2017-09-07T15:13:33.985Z,59.42
2017-09-07T15:16:03.063Z,59.72
2017-09-07T15:18:32.176Z,59.51
2017-09-07T15:21:01.280Z,60.00
2017-09-07T15:23:30.374Z,60.36
2017-09-07T15:25:59.416Z,60.13
2017-09-07T15:28:29.260Z,60.49
2017-09-07T15:30:58.345Z,59.12
2017-09-07T15:33:27.425Z,59.91
2017-09-07T15:35:57.248Z,60.85
2017-09-07T15:38:26.303Z,60.79
2017-09-07T15:40:55.377Z,61.01
2017-09-07T15:43:24.445Z,61.26
2017-09-07T15:45:53.818Z,60.91
2017-09-07T15:48:22.864Z,60.69
2017-09-07T15:50:51.948Z,60.51
2017-09-07T15:53:21.055Z,60.91
2017-09-07T15:55:50.163Z,61.26
2017-09-07T15:58:19.215Z,61.69
2017-09-07T16:00:49.063Z,62.00
2017-09-07T16:03:18.135Z,62.15
2017-09-07T16:05:47.189Z,61.38
2017-09-07T16:08:17.057Z,61.52
2017-09-07T16:10:46.135Z,61.41
2017-09-07T16:13:15.967Z,61.99
2017-09-07T16:15:45.010Z,61.65
2017-09-07T16:18:14.113Z,61.58
2017-09-07T16:20:43.947Z,61.63
2017-09-07T16:23:13.112Z,61.00
2017-09-07T16:25:42.189Z,61.08
2017-09-07T16:28:11.311Z,60.35
2017-09-07T16:30:41.143Z,60.79
2017-09-07T16:33:10.241Z,60.72
2017-09-07T16:35:39.330Z,61.05
2017-09-07T16:38:08.533Z,61.16
2017-09-07T16:40:37.641Z,61.03
2017-09-07T16:43:06.716Z,61.04
2017-09-07T16:45:35.808Z,61.91
2017-09-07T16:48:05.657Z,61.44
2017-09-07T16:50:34.704Z,61.86
2017-09-07T16:53:03.810Z,62.18
2017-09-07T16:55:33.621Z,63.16
2017-09-07T16:58:03.507Z,63.10
2017-09-07T17:00:33.567Z,63.22
2017-09-07T17:03:02.684Z,63.25
2017-09-07T17:05:32.517Z,63.08
2017-09-07T17:08:01.598Z,63.22
2017-09-07T17:10:30.718Z,63.78
2017-09-07T17:13:02.312Z,63.79
2017-09-07T17:15:32.152Z,64.23
2017-09-07T17:18:01.222Z,64.35
2017-09-07T17:20:30.315Z,64.26
2017-09-07T17:23:00.530Z,64.22
2017-09-07T17:25:29.582Z,64.09
2017-09-07T17:27:59.458Z,62.98
2017-09-07T17:30:29.317Z,63.07
2017-09-07T17:32:59.329Z,63.54
2017-09-07T17:35:28.406Z,63.52
2017-09-07T17:37:57.530Z,63.21
2017-09-07T17:40:26.614Z,62.85
2017-09-07T17:42:55.671Z,62.76
2017-09-07T17:45:24.933Z,62.36
2017-09-07T17:47:53.956Z,61.77
2017-09-07T17:50:23.822Z,61.82
2017-09-07T17:52:52.924Z,61.67
2017-09-07T17:55:22.043Z,61.22
2017-09-07T17:57:51.152Z,61.85
2017-09-07T18:00:21.108Z,61.69
2017-09-07T18:02:50.200Z,61.70
2017-09-07T18:05:19.506Z,61.93
2017-09-07T18:07:48.609Z,62.70
2017-09-07T18:10:17.666Z,62.29
2017-09-07T18:12:47.533Z,62.51
2017-09-07T18:15:16.629Z,62.73
2017-09-07T18:17:45.714Z,63.37
2017-09-07T18:20:16.674Z,63.19
2017-09-07T18:22:47.496Z,63.49
2017-09-07T18:25:16.568Z,63.48
2017-09-07T18:27:45.629Z,63.63
2017-09-07T18:30:15.489Z,63.96
2017-09-07T18:32:44.558Z,64.00
2017-09-07T18:35:14.023Z,63.81
2017-09-07T18:37:47.087Z,64.51
2017-09-07T18:40:16.160Z,64.97
2017-09-07T18:42:45.235Z,64.94
2017-09-07T18:45:14.313Z,65.49
2017-09-07T18:47:44.264Z,65.08
2017-09-07T18:50:13.614Z,65.65
2017-09-07T18:52:43.024Z,65.84
2017-09-07T18:55:12.153Z,66.07
2017-09-07T18:57:41.281Z,66.37
2017-09-07T19:00:10.541Z,66.43
2017-09-07T19:02:39.583Z,66.77
2017-09-07T19:05:08.947Z,66.64
2017-09-07T19:07:38.059Z,66.62
2017-09-07T19:10:07.130Z,66.89
2017-09-07T19:12:36.216Z,67.14
2017-09-07T19:15:06.089Z,67.05
2017-09-07T19:17:35.178Z,67.15
2017-09-07T19:20:04.307Z,67.56
2017-09-07T19:22:33.394Z,68.31
2017-09-07T19:25:02.473Z,67.77
2017-09-07T19:27:31.550Z,68.27
2017-09-07T19:30:00.622Z,67.86
2017-09-07T19:32:29.767Z,68.77
2017-09-07T19:34:59.589Z,68.45
2017-09-07T19:37:28.679Z,69.08
2017-09-07T19:39:57.769Z,68.85
2017-09-07T19:42:26.849Z,68.79
2017-09-07T19:44:56.163Z,68.78
2017-09-07T19:47:25.242Z,68.63
2017-09-07T19:49:54.328Z,68.88
2017-09-07T19:52:23.393Z,69.03
2017-09-07T19:54:52.476Z,69.15
2017-09-07T19:57:21.546Z,69.41
2017-09-07T19:59:50.631Z,69.52
2017-09-07T20:02:19.701Z,69.96
2017-09-07T20:04:49.069Z,69.86
2017-09-07T20:07:18.124Z,70.06
2017-09-07T20:09:47.241Z,70.63
2017-09-07T20:12:16.272Z,71.09
2017-09-07T20:14:45.324Z,71.35
2017-09-07T20:17:15.176Z,70.47
2017-09-07T20:19:44.289Z,70.50
2017-09-07T20:22:13.438Z,71.33
2017-09-07T20:24:42.504Z,70.87
2017-09-07T20:27:11.611Z,70.97
2017-09-07T20:29:41.527Z,71.15
2017-09-07T20:32:10.606Z,71.20
2017-09-07T20:34:39.698Z,71.30
2017-09-07T20:37:08.849Z,71.00
2017-09-07T20:39:37.932Z,70.74
2017-09-07T20:42:06.998Z,70.88
2017-09-07T20:44:36.841Z,71.06
2017-09-07T20:47:06.664Z,71.28
2017-09-07T20:49:35.785Z,71.45
2017-09-07T20:52:04.874Z,71.19
2017-09-07T20:54:33.974Z,71.46
2017-09-07T20:57:03.051Z,72.07
2017-09-07T20:59:32.870Z,71.82
2017-09-07T21:02:01.921Z,72.42
2017-09-07T21:04:31.776Z,72.81
2017-09-07T21:07:00.857Z,72.54
2017-09-07T21:09:30.675Z,72.76
2017-09-07T21:11:59.788Z,72.79
2017-09-07T21:14:28.911Z,73.26
2017-09-07T21:16:58.204Z,73.09
2017-09-07T21:19:27.280Z,72.88
2017-09-07T21:21:56.559Z,73.19
2017-09-07T21:24:26.416Z,73.53
2017-09-07T21:26:55.478Z,73.57
2017-09-07T21:29:25.333Z,73.71
2017-09-07T21:31:54.434Z,73.89
2017-09-07T21:34:23.478Z,74.07
2017-09-07T21:36:52.544Z,74.28
2017-09-07T21:39:21.648Z,74.45
2017-09-07T21:41:50.711Z,74.50
2017-09-07T21:44:19.784Z,74.46
2017-09-07T21:46:48.856Z,74.73
2017-09-07T21:49:17.918Z,74.86
2017-09-07T21:51:46.972Z,75.03
2017-09-07T21:54:16.049Z,75.04
2017-09-07T21:56:45.141Z,75.24
2017-09-07T21:59:14.935Z,75.20
2017-09-07T22:01:44.777Z,75.24
2017-09-07T22:04:13.862Z,75.47
2017-09-07T22:06:43.027Z,75.75
2017-09-07T22:09:12.100Z,75.72
2017-09-07T22:11:41.165Z,75.51
2017-09-07T22:14:10.325Z,75.60
2017-09-07T22:16:39.355Z,75.73
2017-09-07T22:19:08.610Z,75.81
2017-09-07T22:21:38.855Z,75.63
2017-09-07T22:24:08.689Z,75.95
2017-09-07T22:26:37.765Z,75.92
2017-09-07T22:29:07.576Z,76.14
2017-09-07T22:31:36.659Z,76.50
2017-09-07T22:34:06.512Z,76.22
2017-09-07T22:36:35.573Z,76.11
2017-09-07T22:39:05.409Z,76.18
2017-09-07T22:41:35.454Z,76.38
2017-09-07T22:44:04.577Z,76.03
2017-09-07T22:46:33.616Z,76.28
2017-09-07T22:49:02.721Z,76.74
2017-09-07T22:51:31.767Z,76.18
2017-09-07T22:54:00.836Z,76.22
2017-09-07T22:56:29.896Z,76.07
2017-09-07T22:58:58.960Z,75.93
2017-09-07T23:01:28.016Z,75.65
2017-09-07T23:03:57.113Z,75.59
2017-09-07T23:06:26.152Z,75.30
2017-09-07T23:08:55.983Z,74.96
2017-09-07T23:11:25.049Z,74.85
2017-09-07T23:13:54.144Z,74.58
2017-09-07T23:16:23.215Z,74.73
2017-09-07T23:18:52.260Z,74.53
2017-09-07T23:21:21.398Z,74.62
2017-09-07T23:23:50.469Z,74.54
2017-09-07T23:26:19.517Z,74.41
2017-09-07T23:28:48.609Z,74.24
2017-09-07T23:31:17.675Z,74.33
2017-09-07T23:33:46.732Z,74.35
2017-09-07T23:36:15.848Z,74.07
2017-09-07T23:38:44.924Z,73.76
2017-09-07T23:41:14.183Z,73.73
2017-09-07T23:43:43.290Z,73.75
2017-09-07T23:46:12.380Z,73.96
2017-09-07T23:48:41.480Z,73.48
2017-09-07T23:51:10.546Z,73.48
2017-09-07T23:53:39.617Z,73.57
2017-09-07T23:56:08.775Z,73.64
2017-09-07T23:58:37.846Z,73.26
